createdAt,value
2019-02-22T00:02:47.055Z,38.57
2019-02-22T00:05:17.430Z,38.73
2019-02-22T00:07:47.691Z,38.77
2019-02-22T00:10:17.979Z,39.00
2019-02-22T00:12:48.375Z,37.77
2019-02-22T00:15:18.669Z,39.87
2019-02-22T00:17:49.125Z,38.80
2019-02-22T00:20:19.416Z,37.83
2019-02-22T00:22:50.839Z,38.80
2019-02-22T00:25:21.092Z,38.50
2019-02-22T00:27:51.430Z,39.30
2019-02-22T00:30:21.711Z,38.83
2019-02-22T00:32:52.040Z,41.37
2019-02-22T00:35:22.396Z,37.77
2019-02-22T00:37:52.685Z,39.40
2019-02-22T00:40:23.008Z,38.80
2019-02-22T00:42:53.355Z,38.90
2019-02-22T00:45:23.707Z,37.30
2019-02-22T00:47:54.149Z,39.50
2019-02-22T00:50:24.435Z,39.50
2019-02-22T00:52:54.837Z,38.70
2019-02-22T00:55:25.146Z,38.77
2019-02-22T00:57:57.130Z,39.67
2019-02-22T01:00:27.556Z,38.67
2019-02-22T01:02:57.984Z,38.80
2019-02-22T01:05:28.344Z,37.90
2019-02-22T01:07:58.627Z,39.03
2019-02-22T01:10:31.472Z,39.40
2019-02-22T01:13:02.589Z,39.40
2019-02-22T01:15:33.033Z,38.37
2019-02-22T01:18:03.381Z,39.50
2019-02-22T01:20:33.658Z,37.97
2019-02-22T01:23:04.468Z,38.67
2019-02-22T01:25:34.761Z,37.27
2019-02-22T01:28:05.137Z,38.13
2019-02-22T01:30:37.153Z,39.43
2019-02-22T01:33:07.571Z,38.33
2019-02-22T01:35:37.939Z,37.97
2019-02-22T01:38:08.318Z,38.37
2019-02-22T01:40:43.769Z,37.90
2019-02-22T01:43:10.845Z,38.73
2019-02-22T01:45:41.279Z,39.50
2019-02-22T01:48:11.668Z,37.03
2019-02-22T01:50:42.028Z,37.60
2019-02-22T01:53:12.479Z,38.33
2019-02-22T01:55:42.839Z,37.43
2019-02-22T01:58:13.243Z,38.87
2019-02-22T02:00:43.661Z,37.20
2019-02-22T02:03:14.263Z,37.60
2019-02-22T02:05:44.667Z,35.87
2019-02-22T02:08:15.045Z,36.03
2019-02-22T02:10:53.848Z,35.67
2019-02-22T02:13:17.556Z,35.63
2019-02-22T02:15:47.958Z,36.37
2019-02-22T02:18:18.272Z,34.17
2019-02-22T02:20:48.630Z,35.43
2019-02-22T02:23:18.994Z,35.70
2019-02-22T02:25:49.273Z,33.77
2019-02-22T02:28:19.663Z,33.87
2019-02-22T02:30:50.035Z,33.43
2019-02-22T02:33:20.454Z,32.93
2019-02-22T02:35:52.035Z,35.50
2019-02-22T02:38:25.453Z,34.93
2019-02-22T02:41:08.135Z,35.80
2019-02-22T02:43:27.913Z,38.47
2019-02-22T02:45:58.411Z,38.00
2019-02-22T02:48:31.070Z,40.07
2019-02-22T02:51:01.501Z,37.33
2019-02-22T02:53:31.990Z,37.07
2019-02-22T02:56:02.400Z,37.57
2019-02-22T02:58:32.799Z,35.33
2019-02-22T03:01:03.164Z,34.53
2019-02-22T03:03:35.665Z,34.90
2019-02-22T03:06:11.720Z,34.40
2019-02-22T03:08:42.082Z,34.57
2019-02-22T03:11:20.553Z,33.67
2019-02-22T03:13:45.773Z,34.43
2019-02-22T03:16:16.333Z,32.33
2019-02-22T03:18:46.733Z,34.10
2019-02-22T03:21:17.058Z,32.13
2019-02-22T03:23:47.427Z,34.30
2019-02-22T03:26:17.766Z,34.37
2019-02-22T03:28:48.074Z,36.80
2019-02-22T03:31:18.487Z,34.13
2019-02-22T03:33:48.816Z,37.50
2019-02-22T03:36:19.137Z,37.27
2019-02-22T03:38:49.601Z,37.67
2019-02-22T03:41:31.859Z,38.67
2019-02-22T03:43:51.914Z,40.37
2019-02-22T03:46:22.232Z,40.00
2019-02-22T03:48:52.535Z,37.97
2019-02-22T03:51:22.932Z,35.73
2019-02-22T03:53:58.319Z,36.07
2019-02-22T03:56:28.768Z,35.60
2019-02-22T03:58:59.216Z,33.77
2019-02-22T04:01:29.569Z,36.43
2019-02-22T04:03:59.915Z,36.67
2019-02-22T04:06:30.401Z,35.90
2019-02-22T04:09:00.822Z,34.47
2019-02-22T04:11:44.675Z,33.37
2019-02-22T04:14:04.801Z,34.43
2019-02-22T04:16:35.293Z,32.33
2019-02-22T04:19:05.811Z,35.40
2019-02-22T04:21:36.218Z,33.93
2019-02-22T04:24:06.530Z,36.20
2019-02-22T04:26:36.819Z,38.13
2019-02-22T04:29:07.117Z,37.83
2019-02-22T04:31:37.466Z,37.80
2019-02-22T04:34:07.975Z,38.43
2019-02-22T04:36:38.293Z,40.17
2019-02-22T04:39:08.814Z,37.70
2019-02-22T04:41:39.134Z,37.57
2019-02-22T04:44:09.517Z,37.90
2019-02-22T04:46:39.940Z,37.17
2019-02-22T04:49:10.297Z,35.67
2019-02-22T04:51:40.694Z,36.77
2019-02-22T04:54:13.888Z,36.80
2019-02-22T04:56:45.248Z,34.10
2019-02-22T04:59:15.710Z,34.70
2019-02-22T05:01:48.361Z,33.63
2019-02-22T05:04:18.712Z,35.60
2019-02-22T05:06:49.142Z,37.50
2019-02-22T05:09:19.831Z,34.60
2019-02-22T05:11:50.262Z,36.47
2019-02-22T05:14:20.777Z,36.50
2019-02-22T05:16:51.113Z,36.53
2019-02-22T05:19:21.513Z,35.90
2019-02-22T05:21:51.878Z,37.00
2019-02-22T05:24:22.269Z,37.40
2019-02-22T05:26:52.681Z,35.67
2019-02-22T05:29:22.995Z,35.27
2019-02-22T05:31:54.827Z,36.43
2019-02-22T05:34:25.327Z,35.73
2019-02-22T05:36:55.673Z,34.80
2019-02-22T05:39:26.788Z,35.90
2019-02-22T05:41:57.162Z,36.33
2019-02-22T05:44:28.594Z,35.27
2019-02-22T05:47:00.613Z,34.17
2019-02-22T05:49:31.270Z,38.20
2019-02-22T05:52:01.642Z,38.37
2019-02-22T05:54:32.760Z,36.57
2019-02-22T05:57:03.090Z,37.27
2019-02-22T05:59:33.385Z,35.67
2019-02-22T06:02:03.694Z,36.97
2019-02-22T06:04:33.949Z,35.37
2019-02-22T06:07:04.248Z,36.13
2019-02-22T06:09:34.637Z,36.00
2019-02-22T06:12:04.978Z,34.03
2019-02-22T06:14:35.335Z,36.77
2019-02-22T06:17:14.483Z,35.30
2019-02-22T06:19:39.449Z,34.17
2019-02-22T06:22:09.753Z,34.10
2019-02-22T06:24:40.017Z,32.27
2019-02-22T06:27:10.293Z,33.87
2019-02-22T06:29:41.253Z,32.97
2019-02-22T06:32:11.617Z,34.23
2019-02-22T06:34:41.938Z,32.90
2019-02-22T06:37:13.416Z,33.40
2019-02-22T06:39:43.883Z,33.40
2019-02-22T06:42:14.229Z,33.90
2019-02-22T06:44:44.523Z,34.90
2019-02-22T06:47:14.949Z,34.87
2019-02-22T06:49:45.451Z,35.70
2019-02-22T06:52:15.799Z,35.57
2019-02-22T06:54:46.279Z,37.30
2019-02-22T06:57:16.562Z,36.20
2019-02-22T06:59:48.514Z,35.67
2019-02-22T07:02:24.061Z,34.53
2019-02-22T07:05:50.973Z,35.70
2019-02-22T07:12:56.883Z,35.17
2019-02-22T07:15:27.045Z,34.83
2019-02-22T07:17:58.438Z,33.43
2019-02-22T07:20:28.942Z,37.13
2019-02-22T07:22:59.291Z,34.20
2019-02-22T07:25:29.717Z,37.37
2019-02-22T07:28:00.279Z,34.43
2019-02-22T07:30:30.813Z,37.27
2019-02-22T07:33:01.390Z,36.23
2019-02-22T07:35:32.909Z,36.37
2019-02-22T07:38:03.287Z,36.33
2019-02-22T07:40:33.694Z,36.37
2019-02-22T07:43:08.005Z,35.47
2019-02-22T07:45:35.966Z,37.60
2019-02-22T07:48:06.224Z,35.03
2019-02-22T07:50:36.535Z,36.07
2019-02-22T07:53:06.880Z,35.67
2019-02-22T07:55:37.196Z,35.67
2019-02-22T07:58:08.722Z,34.67
2019-02-22T08:00:39.238Z,35.13
2019-02-22T08:03:09.591Z,34.13
2019-02-22T08:05:40.125Z,34.30
2019-02-22T08:08:10.535Z,33.30
2019-02-22T08:10:43.712Z,34.93
2019-02-22T08:13:19.683Z,36.23
2019-02-22T08:15:46.243Z,34.33
2019-02-22T08:18:16.632Z,33.93
2019-02-22T08:20:47.065Z,33.47
2019-02-22T08:23:17.448Z,35.63
2019-02-22T08:25:48.072Z,36.33
2019-02-22T08:28:25.262Z,36.20
2019-02-22T08:31:06.495Z,35.83
2019-02-22T08:33:38.474Z,34.90
2019-02-22T08:36:08.867Z,35.47
2019-02-22T08:38:39.352Z,35.53
2019-02-22T08:41:09.805Z,34.70
2019-02-22T08:43:40.689Z,35.37
2019-02-22T08:46:11.159Z,36.40
2019-02-22T08:48:43.364Z,35.83
2019-02-22T08:51:16.230Z,35.23
2019-02-22T08:53:46.695Z,35.37
2019-02-22T08:56:17.018Z,36.47
2019-02-22T08:58:48.778Z,37.17
2019-02-22T09:01:20.164Z,37.63
2019-02-22T09:03:51.956Z,36.10
2019-02-22T09:06:22.365Z,36.90
2019-02-22T09:08:53.168Z,37.17
2019-02-22T09:11:23.568Z,36.57
2019-02-22T09:13:54.019Z,36.10
2019-02-22T09:16:24.333Z,36.50
2019-02-22T09:18:54.822Z,39.77
2019-02-22T09:21:25.160Z,37.63
2019-02-22T09:24:01.189Z,40.67
2019-02-22T09:26:31.575Z,42.17
2019-02-22T09:29:02.049Z,45.77
2019-02-22T09:31:33.971Z,40.57
2019-02-22T09:34:04.401Z,41.83
2019-02-22T09:36:35.827Z,39.73
2019-02-22T09:39:06.899Z,37.93
2019-02-22T09:41:38.397Z,38.43
2019-02-22T09:44:09.080Z,38.50
2019-02-22T09:46:39.553Z,37.00
2019-02-22T09:49:09.970Z,37.37
2019-02-22T09:51:41.282Z,36.70
2019-02-22T09:54:12.945Z,38.10
2019-02-22T09:56:43.390Z,38.50
2019-02-22T09:59:13.754Z,41.07
2019-02-22T10:01:45.697Z,39.53
2019-02-22T10:04:16.011Z,38.00
2019-02-22T10:06:46.326Z,38.87
2019-02-22T10:09:16.766Z,39.03
2019-02-22T10:11:47.189Z,41.10
2019-02-22T10:14:17.566Z,36.00
2019-02-22T10:16:47.987Z,35.83
2019-02-22T10:19:18.317Z,35.20
2019-02-22T10:21:48.767Z,37.20
2019-02-22T10:24:19.151Z,32.90
2019-02-22T10:26:49.523Z,32.07
2019-02-22T10:29:19.938Z,37.40
2019-02-22T10:31:50.568Z,36.77
2019-02-22T10:34:20.996Z,39.30
2019-02-22T10:36:51.411Z,36.30
2019-02-22T10:39:21.778Z,38.07
2019-02-22T10:41:52.221Z,34.30
2019-02-22T10:44:24.861Z,33.30
2019-02-22T10:46:55.413Z,31.47
2019-02-22T10:49:26.472Z,31.17
2019-02-22T10:51:56.853Z,31.23
2019-02-22T10:54:29.315Z,29.73
2019-02-22T10:56:59.690Z,26.80
2019-02-22T10:59:30.107Z,24.53
2019-02-22T11:02:00.550Z,24.77
2019-02-22T11:04:30.988Z,23.13
2019-02-22T11:07:03.794Z,22.27
2019-02-22T11:09:34.340Z,20.73
2019-02-22T11:12:04.779Z,21.17
2019-02-22T11:14:36.983Z,17.80
2019-02-22T11:17:07.378Z,11.83
2019-02-22T11:19:37.760Z,9.27
2019-02-22T11:22:08.267Z,8.47
2019-02-22T11:24:38.575Z,8.63
2019-02-22T11:27:08.989Z,8.60
2019-02-22T11:29:39.352Z,8.10
2019-02-22T11:32:09.615Z,7.20
2019-02-22T11:34:39.951Z,9.03
2019-02-22T11:37:11.297Z,7.97
2019-02-22T11:39:41.709Z,7.13
2019-02-22T11:42:12.133Z,8.17
2019-02-22T11:44:42.627Z,7.27
2019-02-22T11:47:13.046Z,8.10
2019-02-22T11:49:43.394Z,6.70
2019-02-22T11:52:13.877Z,5.67
2019-02-22T11:54:44.204Z,4.87
2019-02-22T11:57:45.948Z,3.57
2019-02-22T12:00:17.776Z,3.80
2019-02-22T12:02:48.310Z,3.67
2019-02-22T12:05:20.241Z,2.93
2019-02-22T12:07:50.765Z,2.57
2019-02-22T12:10:21.087Z,2.87
2019-02-22T12:12:51.644Z,2.57
2019-02-22T12:15:22.271Z,2.00
2019-02-22T12:17:52.709Z,1.57
2019-02-22T12:20:23.073Z,1.70
2019-02-22T12:22:53.565Z,2.40
2019-02-22T12:25:23.923Z,2.80
2019-02-22T12:27:55.501Z,2.50
2019-02-22T12:30:25.896Z,3.40
2019-02-22T12:32:56.387Z,4.03
2019-02-22T12:35:26.747Z,3.43
2019-02-22T12:37:57.207Z,2.93
2019-02-22T12:40:30.241Z,2.80
2019-02-22T12:43:00.634Z,2.50
2019-02-22T12:45:30.975Z,2.20
2019-02-22T12:48:01.255Z,3.00
2019-02-22T12:50:31.840Z,3.37
2019-02-22T12:53:02.331Z,3.33
2019-02-22T12:55:32.752Z,3.00
2019-02-22T12:58:03.211Z,2.70
2019-02-22T13:00:34.783Z,3.40
2019-02-22T13:03:06.902Z,2.93
2019-02-22T13:05:37.383Z,4.47
2019-02-22T13:08:07.908Z,4.37
2019-02-22T13:10:38.341Z,3.43
2019-02-22T13:13:08.683Z,5.57
2019-02-22T13:15:39.136Z,3.60
2019-02-22T13:18:09.604Z,3.90
2019-02-22T13:20:40.010Z,4.03
2019-02-22T13:23:11.379Z,4.27
2019-02-22T13:25:41.681Z,5.83
2019-02-22T13:28:12.047Z,5.47
2019-02-22T13:30:42.372Z,6.00
2019-02-22T13:33:12.717Z,5.47
2019-02-22T13:35:42.979Z,5.87
2019-02-22T13:38:13.346Z,5.63
2019-02-22T13:40:43.703Z,5.37
2019-02-22T13:43:14.037Z,6.40
2019-02-22T13:45:44.517Z,5.17
2019-02-22T13:48:14.828Z,4.63
2019-02-22T13:50:45.309Z,4.70
2019-02-22T13:53:15.629Z,4.43
2019-02-22T13:55:47.421Z,5.13
2019-02-22T13:58:17.854Z,7.13
2019-02-22T14:00:48.179Z,6.50
2019-02-22T14:03:18.549Z,8.10
2019-02-22T14:05:48.889Z,8.70
2019-02-22T14:08:19.389Z,7.67
2019-02-22T14:10:49.769Z,7.50
2019-02-22T14:13:20.257Z,5.77
2019-02-22T14:15:52.131Z,6.07
2019-02-22T14:18:23.524Z,7.17
2019-02-22T14:20:53.864Z,8.13
2019-02-22T14:23:24.224Z,8.37
2019-02-22T14:25:54.551Z,8.20
2019-02-22T14:28:24.914Z,8.63
2019-02-22T14:30:55.209Z,11.43
2019-02-22T14:33:25.519Z,12.27
2019-02-22T14:35:55.816Z,13.20
2019-02-22T14:38:26.168Z,12.60
2019-02-22T14:40:56.464Z,13.27
2019-02-22T14:43:26.887Z,12.53
2019-02-22T14:45:57.310Z,11.30
2019-02-22T14:48:28.896Z,13.40
2019-02-22T14:50:59.317Z,12.87
2019-02-22T14:53:29.788Z,12.43
2019-02-22T14:56:00.181Z,14.23
2019-02-22T14:58:32.271Z,14.87
2019-02-22T15:01:02.725Z,14.03
2019-02-22T15:03:40.502Z,15.37
2019-02-22T15:06:11.560Z,13.83
2019-02-22T15:08:42.034Z,13.00
2019-02-22T15:11:12.662Z,13.87
2019-02-22T15:13:44.781Z,14.07
2019-02-22T15:16:34.222Z,14.17
2019-02-22T15:19:04.951Z,13.33
2019-02-22T15:21:37.412Z,15.00
2019-02-22T15:24:07.896Z,15.83
2019-02-22T15:26:38.284Z,15.00
2019-02-22T15:29:10.345Z,15.60
2019-02-22T15:31:40.941Z,14.57
2019-02-22T15:34:13.926Z,15.00
2019-02-22T15:36:48.343Z,15.50
2019-02-22T15:39:21.984Z,15.13
2019-02-22T15:41:52.551Z,16.73
2019-02-22T15:44:24.056Z,18.27
2019-02-22T15:46:54.580Z,18.70
2019-02-22T15:49:25.344Z,18.67
2019-02-22T15:51:55.837Z,18.97
2019-02-22T15:54:26.332Z,18.93
2019-02-22T15:56:56.830Z,20.47
2019-02-22T15:59:27.455Z,20.93
2019-02-22T16:01:58.114Z,19.80
2019-02-22T16:04:34.361Z,21.63
2019-02-22T16:07:05.813Z,19.67
2019-02-22T16:09:36.331Z,21.17
2019-02-22T16:12:06.912Z,21.00
2019-02-22T16:14:40.249Z,21.17
2019-02-22T16:17:11.852Z,20.63
2019-02-22T16:19:43.817Z,21.47
2019-02-22T16:22:14.258Z,20.57
2019-02-22T16:24:47.426Z,20.60
2019-02-22T16:27:20.173Z,21.20
2019-02-22T16:29:50.684Z,21.17
2019-02-22T16:32:21.745Z,21.03
2019-02-22T16:34:56.622Z,19.53
2019-02-22T16:37:27.044Z,20.80
2019-02-22T16:39:57.568Z,19.33
2019-02-22T16:42:27.990Z,19.23
2019-02-22T16:44:59.984Z,16.83
2019-02-22T16:47:39.582Z,17.53
2019-02-22T16:50:04.260Z,17.87
2019-02-22T16:52:34.741Z,18.00
2019-02-22T16:55:05.977Z,17.63
2019-02-22T16:57:36.239Z,18.60
2019-02-22T17:00:07.305Z,18.07
2019-02-22T17:02:40.361Z,16.13
2019-02-22T17:05:12.427Z,17.53
2019-02-22T17:07:42.822Z,16.60
2019-02-22T17:10:13.393Z,17.23
2019-02-22T17:12:43.746Z,16.93
2019-02-22T17:15:14.237Z,17.17
2019-02-22T17:17:44.625Z,16.77
2019-02-22T17:20:15.063Z,16.27
2019-02-22T17:22:46.450Z,16.40
2019-02-22T17:25:16.746Z,15.93
2019-02-22T17:27:47.121Z,15.70
2019-02-22T17:30:17.602Z,14.93
2019-02-22T17:32:47.886Z,17.20
2019-02-22T17:35:18.239Z,17.33
2019-02-22T17:37:48.659Z,18.37
2019-02-22T17:40:20.820Z,18.23
2019-02-22T17:42:51.239Z,19.33
2019-02-22T17:45:21.569Z,19.20
2019-02-22T17:47:52.165Z,18.00
2019-02-22T17:50:22.767Z,19.77
2019-02-22T17:52:53.243Z,18.83
2019-02-22T17:55:25.307Z,19.47
2019-02-22T17:57:55.873Z,19.87
2019-02-22T18:00:26.660Z,20.20
2019-02-22T18:02:57.149Z,19.37
2019-02-22T18:05:28.656Z,19.77
2019-02-22T18:07:59.114Z,20.80
2019-02-22T18:10:29.625Z,21.47
2019-02-22T18:13:00.060Z,20.97
2019-02-22T18:15:31.532Z,21.33
2019-02-22T18:18:01.906Z,20.10
2019-02-22T18:20:32.243Z,20.93
2019-02-22T18:23:02.711Z,21.20
2019-02-22T18:25:34.608Z,21.43
2019-02-22T18:28:06.056Z,23.03
2019-02-22T18:30:36.460Z,20.43
2019-02-22T18:33:06.882Z,19.57
2019-02-22T18:35:37.313Z,19.93
2019-02-22T18:38:07.709Z,21.30
2019-02-22T18:40:38.129Z,20.53
2019-02-22T18:43:08.848Z,20.90
2019-02-22T18:45:41.051Z,20.87
2019-02-22T18:48:11.468Z,20.37
2019-02-22T18:50:42.697Z,20.13
2019-02-22T18:53:13.281Z,20.67
2019-02-22T18:55:50.247Z,19.73
2019-02-22T18:58:17.223Z,19.43
2019-02-22T19:00:49.154Z,19.23
2019-02-22T19:03:19.740Z,20.63
2019-02-22T19:05:50.146Z,18.00
2019-02-22T19:08:31.826Z,19.00
2019-02-22T19:10:52.878Z,19.07
2019-02-22T19:13:23.253Z,19.13
2019-02-22T19:15:53.575Z,19.10
2019-02-22T19:18:24.072Z,18.93
2019-02-22T19:20:54.517Z,19.07
2019-02-22T19:23:26.010Z,18.67
2019-02-22T19:25:56.370Z,18.70
2019-02-22T19:28:29.087Z,18.27
2019-02-22T19:31:02.543Z,18.03
2019-02-22T19:33:32.817Z,17.27
2019-02-22T19:36:03.194Z,17.80
2019-02-22T19:38:33.543Z,18.90
2019-02-22T19:41:03.911Z,17.37
2019-02-22T19:43:34.164Z,18.60
2019-02-22T19:46:05.468Z,18.57
2019-02-22T19:48:35.900Z,17.67
2019-02-22T19:51:08.948Z,18.97
2019-02-22T19:53:39.172Z,19.67
2019-02-22T19:56:09.505Z,18.37
2019-02-22T19:58:39.988Z,18.47
2019-02-22T20:01:11.726Z,18.70
2019-02-22T20:03:42.239Z,18.13
2019-02-22T20:06:12.805Z,19.90
2019-02-22T20:08:46.136Z,19.20
2019-02-22T20:11:17.475Z,17.83
2019-02-22T20:13:47.858Z,18.33
2019-02-22T20:16:18.848Z,19.33
2019-02-22T20:18:49.255Z,18.83
2019-02-22T20:21:19.951Z,18.37
2019-02-22T20:23:50.379Z,19.50
2019-02-22T20:26:23.641Z,19.13
2019-02-22T20:28:54.156Z,18.63
2019-02-22T20:31:24.662Z,18.93
2019-02-22T20:33:55.011Z,20.67
2019-02-22T20:36:28.837Z,22.20
2019-02-22T20:38:59.358Z,24.30
2019-02-22T20:41:32.323Z,27.40
2019-02-22T20:44:02.793Z,27.87
2019-02-22T20:46:35.063Z,27.73
2019-02-22T20:49:08.973Z,29.83
2019-02-22T20:51:39.459Z,30.03
2019-02-22T20:54:09.988Z,30.40
2019-02-22T20:56:41.551Z,31.20
2019-02-22T20:59:12.060Z,33.83
2019-02-22T21:01:42.540Z,31.93
2019-02-22T21:04:15.513Z,32.77
2019-02-22T21:06:45.828Z,33.20
2019-02-22T21:09:16.329Z,31.80
2019-02-22T21:11:46.641Z,34.27
2019-02-22T21:14:17.193Z,34.93
2019-02-22T21:16:47.525Z,32.23
2019-02-22T21:19:18.094Z,34.63
2019-02-22T21:21:49.023Z,35.07
2019-02-22T21:24:21.485Z,34.20
2019-02-22T21:26:51.794Z,33.03
2019-02-22T21:29:22.289Z,34.23
2019-02-22T21:31:52.603Z,34.97
2019-02-22T21:34:22.937Z,34.33
2019-02-22T21:36:53.237Z,33.57
2019-02-22T21:39:23.723Z,35.43
2019-02-22T21:41:54.440Z,34.97
2019-02-22T21:44:24.792Z,34.03
2019-02-22T21:46:55.087Z,34.20
2019-02-22T21:49:25.543Z,36.07
2019-02-22T21:51:55.872Z,35.53
2019-02-22T21:54:26.184Z,34.33
2019-02-22T21:56:56.501Z,36.13
2019-02-22T21:59:27.232Z,36.73
2019-02-22T22:01:57.515Z,34.73
2019-02-22T22:04:27.804Z,35.73
2019-02-22T22:06:58.136Z,35.53
2019-02-22T22:09:28.507Z,35.93
2019-02-22T22:11:58.761Z,36.80
2019-02-22T22:14:29.046Z,34.93
2019-02-22T22:16:59.310Z,33.50
2019-02-22T22:19:29.547Z,34.97
2019-02-22T22:21:59.834Z,34.00
2019-02-22T22:24:30.219Z,33.87
2019-02-22T22:27:00.647Z,34.93
2019-02-22T22:29:31.200Z,35.83
2019-02-22T22:32:01.452Z,36.53
2019-02-22T22:34:31.808Z,36.47
2019-02-22T22:37:02.072Z,36.30
2019-02-22T22:39:32.440Z,36.10
2019-02-22T22:42:02.756Z,36.20
2019-02-22T22:44:34.236Z,36.37
2019-02-22T22:47:04.594Z,35.37
2019-02-22T22:49:34.874Z,36.00
2019-02-22T22:52:05.252Z,35.37
2019-02-22T22:54:35.606Z,37.03
2019-02-22T22:57:06.004Z,34.23
2019-02-22T22:59:36.347Z,35.13
2019-02-22T23:02:06.953Z,35.80
2019-02-22T23:04:37.302Z,35.27
2019-02-22T23:07:07.784Z,36.20
2019-02-22T23:09:38.107Z,36.43
2019-02-22T23:12:08.437Z,37.33
2019-02-22T23:14:38.820Z,37.33
2019-02-22T23:17:09.252Z,35.03
2019-02-22T23:19:39.739Z,39.73
2019-02-22T23:22:10.618Z,36.40
2019-02-22T23:24:41.023Z,37.17
2019-02-22T23:27:11.509Z,36.90
2019-02-22T23:29:41.903Z,37.60
2019-02-22T23:32:12.240Z,36.17
2019-02-22T23:34:43.717Z,38.17
2019-02-22T23:37:14.123Z,37.13
2019-02-22T23:39:44.519Z,38.33
2019-02-22T23:42:16.505Z,35.37
2019-02-22T23:44:46.797Z,35.73
2019-02-22T23:47:17.348Z,37.33
2019-02-22T23:49:47.899Z,36.70
2019-02-22T23:52:22.740Z,35.67
2019-02-22T23:54:55.840Z,33.70
2019-02-22T23:57:26.202Z,35.43
2019-02-22T23:59:56.563Z,34.40
